sensor_id;sensor_type;location;lat;lon;timestamp;P1;durP1;ratioP1;P2;durP2;ratioP2
12474;SDS011;6302;42.624;23.334;2022-09-09T00:01:15;9.70;;;8.70;;
12474;SDS011;6302;42.624;23.334;2022-09-09T00:03:52;9.47;;;8.63;;
12474;SDS011;6302;42.624;23.334;2022-09-09T00:06:24;10.77;;;9.10;;
12474;SDS011;6302;42.624;23.334;2022-09-09T00:09:00;10.13;;;9.13;;
12474;SDS011;6302;42.624;23.334;2022-09-09T00:11:32;9.37;;;8.13;;
12474;SDS011;6302;42.624;23.334;2022-09-09T00:14:10;9.23;;;8.37;;
12474;SDS011;6302;42.624;23.334;2022-09-09T00:16:45;9.20;;;8.30;;
12474;SDS011;6302;42.624;23.334;2022-09-09T00:19:19;9.73;;;8.73;;
12474;SDS011;6302;42.624;23.334;2022-09-09T00:21:52;10.07;;;8.23;;
12474;SDS011;6302;42.624;23.334;2022-09-09T00:24:35;9.13;;;8.20;;
12474;SDS011;6302;42.624;23.334;2022-09-09T00:27:06;8.87;;;7.97;;
12474;SDS011;6302;42.624;23.334;2022-09-09T00:29:42;8.53;;;7.73;;
12474;SDS011;6302;42.624;23.334;2022-09-09T00:32:12;10.70;;;8.47;;
12474;SDS011;6302;42.624;23.334;2022-09-09T00:34:43;8.43;;;7.67;;
12474;SDS011;6302;42.624;23.334;2022-09-09T00:37:15;9.13;;;7.77;;
12474;SDS011;6302;42.624;23.334;2022-09-09T00:39:45;8.23;;;7.30;;
12474;SDS011;6302;42.624;23.334;2022-09-09T00:42:14;8.80;;;7.90;;
12474;SDS011;6302;42.624;23.334;2022-09-09T00:44:55;7.87;;;7.13;;
12474;SDS011;6302;42.624;23.334;2022-09-09T00:47:32;8.03;;;7.20;;
12474;SDS011;6302;42.624;23.334;2022-09-09T00:50:22;8.27;;;7.40;;
12474;SDS011;6302;42.624;23.334;2022-09-09T00:53:12;7.50;;;6.80;;
12474;SDS011;6302;42.624;23.334;2022-09-09T00:55:49;7.37;;;6.67;;
12474;SDS011;6302;42.624;23.334;2022-09-09T00:58:22;10.27;;;7.07;;
12474;SDS011;6302;42.624;23.334;2022-09-09T01:00:52;7.87;;;7.07;;
12474;SDS011;6302;42.624;23.334;2022-09-09T01:03:26;7.90;;;7.10;;
12474;SDS011;6302;42.624;23.334;2022-09-09T01:06:12;9.37;;;7.63;;
12474;SDS011;6302;42.624;23.334;2022-09-09T01:08:58;7.83;;;7.13;;
12474;SDS011;6302;42.624;23.334;2022-09-09T01:11:36;7.93;;;7.23;;
12474;SDS011;6302;42.624;23.334;2022-09-09T01:14:13;8.33;;;7.23;;
12474;SDS011;6302;42.624;23.334;2022-09-09T01:16:52;9.00;;;7.63;;
12474;SDS011;6302;42.624;23.334;2022-09-09T01:19:24;7.53;;;6.83;;
12474;SDS011;6302;42.624;23.334;2022-09-09T01:22:01;8.67;;;7.57;;
12474;SDS011;6302;42.624;23.334;2022-09-09T01:24:38;8.23;;;7.40;;
12474;SDS011;6302;42.624;23.334;2022-09-09T01:27:11;8.97;;;8.07;;
12474;SDS011;6302;42.624;23.334;2022-09-09T01:29:40;8.10;;;7.40;;
12474;SDS011;6302;42.624;23.334;2022-09-09T01:35:05;8.00;;;7.10;;
12474;SDS011;6302;42.624;23.334;2022-09-09T01:37:36;8.00;;;7.20;;
12474;SDS011;6302;42.624;23.334;2022-09-09T01:40:04;9.20;;;7.70;;
12474;SDS011;6302;42.624;23.334;2022-09-09T01:42:32;8.87;;;8.07;;
12474;SDS011;6302;42.624;23.334;2022-09-09T01:44:59;8.10;;;7.40;;
12474;SDS011;6302;42.624;23.334;2022-09-09T01:47:26;9.03;;;8.13;;
12474;SDS011;6302;42.624;23.334;2022-09-09T01:49:53;8.27;;;7.47;;
12474;SDS011;6302;42.624;23.334;2022-09-09T01:52:20;8.77;;;7.97;;
12474;SDS011;6302;42.624;23.334;2022-09-09T01:54:47;8.53;;;7.60;;
12474;SDS011;6302;42.624;23.334;2022-09-09T01:57:15;11.53;;;7.57;;
12474;SDS011;6302;42.624;23.334;2022-09-09T01:59:53;8.90;;;8.03;;
12474;SDS011;6302;42.624;23.334;2022-09-09T02:02:30;8.47;;;7.67;;
12474;SDS011;6302;42.624;23.334;2022-09-09T02:05:04;9.30;;;8.40;;
12474;SDS011;6302;42.624;23.334;2022-09-09T02:07:41;8.40;;;7.57;;
12474;SDS011;6302;42.624;23.334;2022-09-09T02:10:16;9.07;;;7.67;;
12474;SDS011;6302;42.624;23.334;2022-09-09T02:12:47;10.97;;;8.57;;
12474;SDS011;6302;42.624;23.334;2022-09-09T02:15:20;8.83;;;8.00;;
12474;SDS011;6302;42.624;23.334;2022-09-09T02:17:52;9.03;;;8.17;;
12474;SDS011;6302;42.624;23.334;2022-09-09T02:20:24;10.03;;;9.03;;
12474;SDS011;6302;42.624;23.334;2022-09-09T02:22:52;8.90;;;8.10;;
12474;SDS011;6302;42.624;23.334;2022-09-09T02:25:21;8.87;;;7.97;;
12474;SDS011;6302;42.624;23.334;2022-09-09T02:27:50;9.13;;;8.23;;
12474;SDS011;6302;42.624;23.334;2022-09-09T02:30:19;8.63;;;7.80;;
12474;SDS011;6302;42.624;23.334;2022-09-09T02:32:46;9.00;;;8.10;;
12474;SDS011;6302;42.624;23.334;2022-09-09T02:35:18;12.40;;;9.17;;
12474;SDS011;6302;42.624;23.334;2022-09-09T02:37:48;9.20;;;8.30;;
12474;SDS011;6302;42.624;23.334;2022-09-09T02:40:16;11.13;;;8.97;;
12474;SDS011;6302;42.624;23.334;2022-09-09T02:42:44;10.10;;;9.20;;
12474;SDS011;6302;42.624;23.334;2022-09-09T02:45:12;9.87;;;8.90;;
12474;SDS011;6302;42.624;23.334;2022-09-09T02:47:45;10.27;;;9.10;;
12474;SDS011;6302;42.624;23.334;2022-09-09T02:50:17;9.87;;;8.97;;
12474;SDS011;6302;42.624;23.334;2022-09-09T02:52:55;10.17;;;9.27;;
12474;SDS011;6302;42.624;23.334;2022-09-09T02:55:35;11.63;;;9.57;;
12474;SDS011;6302;42.624;23.334;2022-09-09T02:58:09;10.00;;;9.10;;
12474;SDS011;6302;42.624;23.334;2022-09-09T03:00:39;10.03;;;9.13;;
12474;SDS011;6302;42.624;23.334;2022-09-09T03:03:07;12.07;;;8.90;;
12474;SDS011;6302;42.624;23.334;2022-09-09T03:05:35;10.87;;;9.87;;
12474;SDS011;6302;42.624;23.334;2022-09-09T03:08:02;10.73;;;9.73;;
12474;SDS011;6302;42.624;23.334;2022-09-09T03:10:29;10.50;;;9.50;;
12474;SDS011;6302;42.624;23.334;2022-09-09T03:12:55;10.40;;;9.30;;
12474;SDS011;6302;42.624;23.334;2022-09-09T03:15:22;10.33;;;9.37;;
12474;SDS011;6302;42.624;23.334;2022-09-09T03:17:55;9.73;;;8.83;;
12474;SDS011;6302;42.624;23.334;2022-09-09T03:20:23;10.93;;;9.23;;
12474;SDS011;6302;42.624;23.334;2022-09-09T03:22:51;10.23;;;9.20;;
12474;SDS011;6302;42.624;23.334;2022-09-09T03:25:18;10.07;;;9.07;;
12474;SDS011;6302;42.624;23.334;2022-09-09T03:27:44;10.63;;;9.53;;
12474;SDS011;6302;42.624;23.334;2022-09-09T03:30:11;11.37;;;10.17;;
12474;SDS011;6302;42.624;23.334;2022-09-09T03:32:39;11.17;;;10.07;;
12474;SDS011;6302;42.624;23.334;2022-09-09T03:35:05;11.73;;;10.60;;
12474;SDS011;6302;42.624;23.334;2022-09-09T03:37:34;11.23;;;10.07;;
12474;SDS011;6302;42.624;23.334;2022-09-09T03:40:01;14.27;;;10.60;;
12474;SDS011;6302;42.624;23.334;2022-09-09T03:42:29;10.87;;;9.87;;
12474;SDS011;6302;42.624;23.334;2022-09-09T03:44:56;10.40;;;9.50;;
12474;SDS011;6302;42.624;23.334;2022-09-09T03:47:24;10.33;;;9.33;;
12474;SDS011;6302;42.624;23.334;2022-09-09T03:49:51;10.53;;;9.43;;
12474;SDS011;6302;42.624;23.334;2022-09-09T03:52:17;10.43;;;9.43;;
12474;SDS011;6302;42.624;23.334;2022-09-09T03:54:48;11.30;;;9.20;;
12474;SDS011;6302;42.624;23.334;2022-09-09T03:57:14;11.17;;;10.07;;
12474;SDS011;6302;42.624;23.334;2022-09-09T03:59:42;10.03;;;9.13;;
12474;SDS011;6302;42.624;23.334;2022-09-09T04:02:09;9.50;;;8.60;;
12474;SDS011;6302;42.624;23.334;2022-09-09T04:04:36;9.80;;;8.90;;
12474;SDS011;6302;42.624;23.334;2022-09-09T04:07:03;10.00;;;9.10;;
12474;SDS011;6302;42.624;23.334;2022-09-09T04:09:31;10.70;;;9.13;;
12474;SDS011;6302;42.624;23.334;2022-09-09T04:11:59;9.10;;;8.30;;
12474;SDS011;6302;42.624;23.334;2022-09-09T04:14:26;9.80;;;8.87;;
12474;SDS011;6302;42.624;23.334;2022-09-09T04:16:53;10.37;;;9.10;;
12474;SDS011;6302;42.624;23.334;2022-09-09T04:19:22;10.93;;;9.10;;
12474;SDS011;6302;42.624;23.334;2022-09-09T04:21:49;10.23;;;9.33;;
12474;SDS011;6302;42.624;23.334;2022-09-09T04:24:16;11.23;;;8.87;;
12474;SDS011;6302;42.624;23.334;2022-09-09T04:26:43;10.13;;;9.07;;
12474;SDS011;6302;42.624;23.334;2022-09-09T04:29:11;9.63;;;8.70;;
12474;SDS011;6302;42.624;23.334;2022-09-09T04:31:38;9.83;;;8.83;;
12474;SDS011;6302;42.624;23.334;2022-09-09T04:34:07;14.23;;;8.80;;
12474;SDS011;6302;42.624;23.334;2022-09-09T04:36:34;13.27;;;9.40;;
12474;SDS011;6302;42.624;23.334;2022-09-09T04:39:01;12.00;;;9.57;;
12474;SDS011;6302;42.624;23.334;2022-09-09T04:41:28;10.73;;;9.10;;
12474;SDS011;6302;42.624;23.334;2022-09-09T04:43:56;10.67;;;9.57;;
12474;SDS011;6302;42.624;23.334;2022-09-09T04:46:26;10.37;;;9.27;;
12474;SDS011;6302;42.624;23.334;2022-09-09T04:48:53;9.60;;;8.70;;
12474;SDS011;6302;42.624;23.334;2022-09-09T04:51:20;10.57;;;9.17;;
12474;SDS011;6302;42.624;23.334;2022-09-09T04:53:46;10.97;;;8.93;;
12474;SDS011;6302;42.624;23.334;2022-09-09T04:56:15;11.07;;;9.47;;
12474;SDS011;6302;42.624;23.334;2022-09-09T04:58:43;10.07;;;9.07;;
12474;SDS011;6302;42.624;23.334;2022-09-09T05:01:11;10.57;;;9.57;;
12474;SDS011;6302;42.624;23.334;2022-09-09T05:03:40;10.00;;;9.00;;
12474;SDS011;6302;42.624;23.334;2022-09-09T05:06:08;11.27;;;9.20;;
12474;SDS011;6302;42.624;23.334;2022-09-09T05:08:36;10.80;;;9.53;;
12474;SDS011;6302;42.624;23.334;2022-09-09T05:11:04;9.83;;;8.93;;
12474;SDS011;6302;42.624;23.334;2022-09-09T05:13:38;10.80;;;9.80;;
12474;SDS011;6302;42.624;23.334;2022-09-09T05:16:05;10.30;;;9.03;;
12474;SDS011;6302;42.624;23.334;2022-09-09T05:18:32;11.10;;;10.00;;
12474;SDS011;6302;42.624;23.334;2022-09-09T05:21:00;11.70;;;9.73;;
12474;SDS011;6302;42.624;23.334;2022-09-09T05:23:27;12.90;;;9.90;;
12474;SDS011;6302;42.624;23.334;2022-09-09T05:25:54;10.57;;;9.47;;
12474;SDS011;6302;42.624;23.334;2022-09-09T05:28:22;10.60;;;9.60;;
12474;SDS011;6302;42.624;23.334;2022-09-09T05:31:00;11.67;;;10.47;;
12474;SDS011;6302;42.624;23.334;2022-09-09T05:33:29;12.60;;;11.30;;
12474;SDS011;6302;42.624;23.334;2022-09-09T05:35:56;11.40;;;10.30;;
12474;SDS011;6302;42.624;23.334;2022-09-09T05:38:25;12.87;;;11.50;;
12474;SDS011;6302;42.624;23.334;2022-09-09T05:40:52;14.50;;;12.20;;
12474;SDS011;6302;42.624;23.334;2022-09-09T05:43:20;13.03;;;11.77;;
12474;SDS011;6302;42.624;23.334;2022-09-09T05:45:47;12.33;;;11.13;;
12474;SDS011;6302;42.624;23.334;2022-09-09T05:48:15;13.27;;;11.87;;
12474;SDS011;6302;42.624;23.334;2022-09-09T05:50:42;14.10;;;12.37;;
12474;SDS011;6302;42.624;23.334;2022-09-09T05:53:10;16.23;;;13.03;;
12474;SDS011;6302;42.624;23.334;2022-09-09T05:55:38;13.23;;;11.87;;
12474;SDS011;6302;42.624;23.334;2022-09-09T05:58:05;12.27;;;10.97;;
12474;SDS011;6302;42.624;23.334;2022-09-09T06:00:32;11.87;;;10.77;;
12474;SDS011;6302;42.624;23.334;2022-09-09T06:02:59;11.27;;;10.13;;
12474;SDS011;6302;42.624;23.334;2022-09-09T06:05:26;9.77;;;8.87;;
12474;SDS011;6302;42.624;23.334;2022-09-09T06:07:53;9.67;;;8.53;;
12474;SDS011;6302;42.624;23.334;2022-09-09T06:10:20;9.80;;;8.73;;
12474;SDS011;6302;42.624;23.334;2022-09-09T06:12:51;8.93;;;8.03;;
12474;SDS011;6302;42.624;23.334;2022-09-09T06:15:18;9.80;;;8.53;;
12474;SDS011;6302;42.624;23.334;2022-09-09T06:17:45;8.80;;;7.60;;
12474;SDS011;6302;42.624;23.334;2022-09-09T06:20:12;10.70;;;8.50;;
12474;SDS011;6302;42.624;23.334;2022-09-09T06:22:39;10.00;;;7.90;;
12474;SDS011;6302;42.624;23.334;2022-09-09T06:25:07;12.73;;;8.70;;
12474;SDS011;6302;42.624;23.334;2022-09-09T06:27:34;9.27;;;8.33;;
12474;SDS011;6302;42.624;23.334;2022-09-09T06:30:03;8.17;;;7.47;;
12474;SDS011;6302;42.624;23.334;2022-09-09T06:32:30;8.27;;;7.50;;
12474;SDS011;6302;42.624;23.334;2022-09-09T06:35:01;8.43;;;7.73;;
12474;SDS011;6302;42.624;23.334;2022-09-09T06:37:29;8.20;;;7.17;;
12474;SDS011;6302;42.624;23.334;2022-09-09T06:39:56;9.70;;;7.50;;
12474;SDS011;6302;42.624;23.334;2022-09-09T06:42:24;9.93;;;7.43;;
12474;SDS011;6302;42.624;23.334;2022-09-09T06:44:51;8.47;;;6.73;;
12474;SDS011;6302;42.624;23.334;2022-09-09T06:47:19;8.40;;;7.30;;
12474;SDS011;6302;42.624;23.334;2022-09-09T06:49:46;8.10;;;7.30;;
12474;SDS011;6302;42.624;23.334;2022-09-09T06:52:13;7.53;;;6.87;;
12474;SDS011;6302;42.624;23.334;2022-09-09T06:54:40;8.10;;;7.30;;
12474;SDS011;6302;42.624;23.334;2022-09-09T06:57:06;7.40;;;6.70;;
12474;SDS011;6302;42.624;23.334;2022-09-09T06:59:33;7.30;;;6.60;;
12474;SDS011;6302;42.624;23.334;2022-09-09T07:02:00;7.63;;;6.83;;
12474;SDS011;6302;42.624;23.334;2022-09-09T07:04:28;12.13;;;6.70;;
12474;SDS011;6302;42.624;23.334;2022-09-09T07:06:55;8.30;;;7.37;;
12474;SDS011;6302;42.624;23.334;2022-09-09T07:09:22;8.40;;;7.17;;
12474;SDS011;6302;42.624;23.334;2022-09-09T07:11:49;7.80;;;7.10;;
12474;SDS011;6302;42.624;23.334;2022-09-09T07:14:17;8.70;;;7.27;;
12474;SDS011;6302;42.624;23.334;2022-09-09T07:16:45;8.37;;;7.57;;
12474;SDS011;6302;42.624;23.334;2022-09-09T07:19:13;8.00;;;6.90;;
12474;SDS011;6302;42.624;23.334;2022-09-09T07:21:41;7.70;;;7.00;;
12474;SDS011;6302;42.624;23.334;2022-09-09T07:24:09;8.60;;;7.40;;
12474;SDS011;6302;42.624;23.334;2022-09-09T07:26:36;7.87;;;7.13;;
12474;SDS011;6302;42.624;23.334;2022-09-09T07:29:04;7.53;;;6.70;;
12474;SDS011;6302;42.624;23.334;2022-09-09T07:31:32;7.20;;;6.50;;
12474;SDS011;6302;42.624;23.334;2022-09-09T07:34:00;7.53;;;6.43;;
12474;SDS011;6302;42.624;23.334;2022-09-09T07:36:28;9.20;;;6.97;;
12474;SDS011;6302;42.624;23.334;2022-09-09T07:38:59;8.37;;;6.77;;
12474;SDS011;6302;42.624;23.334;2022-09-09T07:41:28;7.53;;;6.83;;
12474;SDS011;6302;42.624;23.334;2022-09-09T07:43:59;7.20;;;6.30;;
12474;SDS011;6302;42.624;23.334;2022-09-09T07:46:30;7.40;;;6.70;;
12474;SDS011;6302;42.624;23.334;2022-09-09T07:48:57;7.77;;;7.07;;
12474;SDS011;6302;42.624;23.334;2022-09-09T07:51:25;7.63;;;6.83;;
12474;SDS011;6302;42.624;23.334;2022-09-09T07:53:55;7.50;;;6.67;;
12474;SDS011;6302;42.624;23.334;2022-09-09T07:56:31;9.20;;;6.90;;
12474;SDS011;6302;42.624;23.334;2022-09-09T07:59:00;8.50;;;6.93;;
12474;SDS011;6302;42.624;23.334;2022-09-09T08:01:30;7.00;;;6.30;;
12474;SDS011;6302;42.624;23.334;2022-09-09T08:03:58;7.93;;;6.33;;
12474;SDS011;6302;42.624;23.334;2022-09-09T08:06:27;8.65;;;6.18;;
12474;SDS011;6302;42.624;23.334;2022-09-09T08:08:55;7.35;;;6.55;;
12474;SDS011;6302;42.624;23.334;2022-09-09T08:11:24;8.63;;;6.63;;
12474;SDS011;6302;42.624;23.334;2022-09-09T08:13:53;7.70;;;6.50;;
12474;SDS011;6302;42.624;23.334;2022-09-09T08:16:20;8.25;;;6.18;;
12474;SDS011;6302;42.624;23.334;2022-09-09T08:18:49;9.10;;;6.57;;
12474;SDS011;6302;42.624;23.334;2022-09-09T08:21:17;10.55;;;6.55;;
12474;SDS011;6302;42.624;23.334;2022-09-09T08:23:46;8.13;;;6.90;;
12474;SDS011;6302;42.624;23.334;2022-09-09T08:26:14;7.03;;;6.10;;
12474;SDS011;6302;42.624;23.334;2022-09-09T08:28:45;9.23;;;6.70;;
12474;SDS011;6302;42.624;23.334;2022-09-09T08:31:13;8.47;;;6.63;;
12474;SDS011;6302;42.624;23.334;2022-09-09T08:33:42;8.13;;;5.90;;
12474;SDS011;6302;42.624;23.334;2022-09-09T08:36:11;6.83;;;5.67;;
12474;SDS011;6302;42.624;23.334;2022-09-09T08:38:40;7.27;;;6.20;;
12474;SDS011;6302;42.624;23.334;2022-09-09T08:41:13;6.60;;;6.00;;
12474;SDS011;6302;42.624;23.334;2022-09-09T08:44:02;6.60;;;5.87;;
12474;SDS011;6302;42.624;23.334;2022-09-09T08:46:34;7.03;;;6.00;;
12474;SDS011;6302;42.624;23.334;2022-09-09T08:49:14;7.53;;;5.90;;
12474;SDS011;6302;42.624;23.334;2022-09-09T08:51:51;8.37;;;6.00;;
12474;SDS011;6302;42.624;23.334;2022-09-09T08:54:22;8.77;;;6.27;;
12474;SDS011;6302;42.624;23.334;2022-09-09T08:56:52;6.50;;;5.90;;
12474;SDS011;6302;42.624;23.334;2022-09-09T08:59:20;6.53;;;5.93;;
12474;SDS011;6302;42.624;23.334;2022-09-09T09:01:51;6.65;;;6.05;;
12474;SDS011;6302;42.624;23.334;2022-09-09T09:07:37;6.43;;;5.75;;
12474;SDS011;6302;42.624;23.334;2022-09-09T09:10:15;6.93;;;6.10;;
12474;SDS011;6302;42.624;23.334;2022-09-09T09:12:52;7.83;;;5.90;;
12474;SDS011;6302;42.624;23.334;2022-09-09T09:15:23;6.88;;;6.10;;
12474;SDS011;6302;42.624;23.334;2022-09-09T09:17:52;8.37;;;6.30;;
12474;SDS011;6302;42.624;23.334;2022-09-09T09:20:20;6.67;;;5.83;;
12474;SDS011;6302;42.624;23.334;2022-09-09T09:22:55;5.70;;;5.20;;
12474;SDS011;6302;42.624;23.334;2022-09-09T09:25:30;5.97;;;5.47;;
12474;SDS011;6302;42.624;23.334;2022-09-09T09:28:01;7.60;;;6.10;;
12474;SDS011;6302;42.624;23.334;2022-09-09T09:30:34;5.93;;;5.43;;
12474;SDS011;6302;42.624;23.334;2022-09-09T09:33:06;6.05;;;5.55;;
12474;SDS011;6302;42.624;23.334;2022-09-09T09:35:43;6.68;;;5.63;;
12474;SDS011;6302;42.624;23.334;2022-09-09T09:38:13;6.25;;;5.65;;
12474;SDS011;6302;42.624;23.334;2022-09-09T09:40:48;5.90;;;5.13;;
12474;SDS011;6302;42.624;23.334;2022-09-09T09:43:18;6.55;;;5.82;;
12474;SDS011;6302;42.624;23.334;2022-09-09T09:45:49;7.00;;;6.40;;
12474;SDS011;6302;42.624;23.334;2022-09-09T09:48:16;5.68;;;5.18;;
12474;SDS011;6302;42.624;23.334;2022-09-09T09:50:46;6.00;;;5.40;;
12474;SDS011;6302;42.624;23.334;2022-09-09T09:53:20;5.60;;;5.10;;
12474;SDS011;6302;42.624;23.334;2022-09-09T09:55:52;11.15;;;6.07;;
12474;SDS011;6302;42.624;23.334;2022-09-09T09:58:22;5.32;;;4.93;;
12474;SDS011;6302;42.624;23.334;2022-09-09T10:00:52;8.63;;;5.57;;
12474;SDS011;6302;42.624;23.334;2022-09-09T10:03:21;6.25;;;5.63;;
12474;SDS011;6302;42.624;23.334;2022-09-09T10:05:50;7.78;;;5.45;;
12474;SDS011;6302;42.624;23.334;2022-09-09T10:08:17;8.98;;;5.25;;
12474;SDS011;6302;42.624;23.334;2022-09-09T10:10:50;6.40;;;5.43;;
12474;SDS011;6302;42.624;23.334;2022-09-09T10:13:29;6.63;;;5.50;;
12474;SDS011;6302;42.624;23.334;2022-09-09T10:16:09;5.32;;;4.85;;
12474;SDS011;6302;42.624;23.334;2022-09-09T10:18:52;7.10;;;5.40;;
12474;SDS011;6302;42.624;23.334;2022-09-09T10:21:29;6.38;;;5.53;;
12474;SDS011;6302;42.624;23.334;2022-09-09T10:24:12;7.65;;;5.65;;
12474;SDS011;6302;42.624;23.334;2022-09-09T10:26:58;6.40;;;5.80;;
12474;SDS011;6302;42.624;23.334;2022-09-09T10:29:40;6.88;;;5.90;;
12474;SDS011;6302;42.624;23.334;2022-09-09T10:38:13;7.47;;;5.13;;
12474;SDS011;6302;42.624;23.334;2022-09-09T10:40:43;7.40;;;5.35;;
12474;SDS011;6302;42.624;23.334;2022-09-09T10:43:20;6.22;;;5.38;;
12474;SDS011;6302;42.624;23.334;2022-09-09T10:46:02;6.50;;;5.50;;
12474;SDS011;6302;42.624;23.334;2022-09-09T10:48:39;6.87;;;4.63;;
12474;SDS011;6302;42.624;23.334;2022-09-09T10:51:20;6.67;;;4.93;;
12474;SDS011;6302;42.624;23.334;2022-09-09T10:53:52;6.40;;;5.65;;
12474;SDS011;6302;42.624;23.334;2022-09-09T10:56:31;8.05;;;5.75;;
12474;SDS011;6302;42.624;23.334;2022-09-09T10:59:02;6.55;;;5.07;;
12474;SDS011;6302;42.624;23.334;2022-09-09T11:01:33;6.45;;;5.85;;
12474;SDS011;6302;42.624;23.334;2022-09-09T11:04:10;7.85;;;5.30;;
12474;SDS011;6302;42.624;23.334;2022-09-09T11:06:47;6.90;;;5.75;;
12474;SDS011;6302;42.624;23.334;2022-09-09T11:09:19;6.18;;;5.18;;
12474;SDS011;6302;42.624;23.334;2022-09-09T11:11:52;7.03;;;5.90;;
12474;SDS011;6302;42.624;23.334;2022-09-09T11:14:21;20.83;;;7.88;;
12474;SDS011;6302;42.624;23.334;2022-09-09T11:16:55;9.50;;;6.45;;
12474;SDS011;6302;42.624;23.334;2022-09-09T11:19:28;8.82;;;5.78;;
12474;SDS011;6302;42.624;23.334;2022-09-09T11:22:00;6.97;;;6.30;;
12474;SDS011;6302;42.624;23.334;2022-09-09T11:24:31;10.35;;;7.00;;
12474;SDS011;6302;42.624;23.334;2022-09-09T11:27:05;7.90;;;7.10;;
12474;SDS011;6302;42.624;23.334;2022-09-09T11:29:45;6.85;;;6.10;;
12474;SDS011;6302;42.624;23.334;2022-09-09T11:32:36;6.50;;;5.90;;
12474;SDS011;6302;42.624;23.334;2022-09-09T11:35:21;6.55;;;5.85;;
12474;SDS011;6302;42.624;23.334;2022-09-09T11:38:12;8.15;;;6.28;;
12474;SDS011;6302;42.624;23.334;2022-09-09T11:40:45;8.43;;;5.88;;
12474;SDS011;6302;42.624;23.334;2022-09-09T11:43:13;6.18;;;5.57;;
12474;SDS011;6302;42.624;23.334;2022-09-09T11:45:43;7.28;;;5.97;;
12474;SDS011;6302;42.624;23.334;2022-09-09T11:48:25;8.35;;;6.22;;
12474;SDS011;6302;42.624;23.334;2022-09-09T11:51:00;6.68;;;6.05;;
12474;SDS011;6302;42.624;23.334;2022-09-09T11:53:30;8.80;;;6.55;;
12474;SDS011;6302;42.624;23.334;2022-09-09T11:58:55;8.75;;;6.05;;
12474;SDS011;6302;42.624;23.334;2022-09-09T12:01:27;7.03;;;6.05;;
12474;SDS011;6302;42.624;23.334;2022-09-09T12:04:02;7.90;;;6.90;;
12474;SDS011;6302;42.624;23.334;2022-09-09T12:06:52;7.95;;;5.93;;
12474;SDS011;6302;42.624;23.334;2022-09-09T12:09:23;6.97;;;6.28;;
12474;SDS011;6302;42.624;23.334;2022-09-09T12:12:06;6.53;;;5.88;;
12474;SDS011;6302;42.624;23.334;2022-09-09T12:14:54;7.40;;;6.55;;
12474;SDS011;6302;42.624;23.334;2022-09-09T12:17:25;6.88;;;6.18;;
12474;SDS011;6302;42.624;23.334;2022-09-09T12:20:00;7.10;;;5.95;;
12474;SDS011;6302;42.624;23.334;2022-09-09T12:22:34;7.60;;;6.47;;
12474;SDS011;6302;42.624;23.334;2022-09-09T12:25:09;13.40;;;6.30;;
12474;SDS011;6302;42.624;23.334;2022-09-09T12:27:48;6.93;;;6.22;;
12474;SDS011;6302;42.624;23.334;2022-09-09T12:30:27;7.55;;;6.68;;
12474;SDS011;6302;42.624;23.334;2022-09-09T12:33:01;7.40;;;6.13;;
12474;SDS011;6302;42.624;23.334;2022-09-09T12:35:34;7.22;;;6.53;;
12474;SDS011;6302;42.624;23.334;2022-09-09T12:38:05;7.60;;;6.55;;
12474;SDS011;6302;42.624;23.334;2022-09-09T12:40:37;8.40;;;6.80;;
12474;SDS011;6302;42.624;23.334;2022-09-09T12:43:15;6.97;;;6.28;;
12474;SDS011;6302;42.624;23.334;2022-09-09T12:45:44;9.65;;;6.95;;
12474;SDS011;6302;42.624;23.334;2022-09-09T12:48:11;7.20;;;6.18;;
12474;SDS011;6302;42.624;23.334;2022-09-09T12:50:43;7.68;;;6.97;;
12474;SDS011;6302;42.624;23.334;2022-09-09T12:53:17;9.05;;;5.97;;
12474;SDS011;6302;42.624;23.334;2022-09-09T12:55:50;9.52;;;7.10;;
12474;SDS011;6302;42.624;23.334;2022-09-09T12:58:18;7.78;;;7.07;;
12474;SDS011;6302;42.624;23.334;2022-09-09T13:00:49;7.97;;;7.18;;
12474;SDS011;6302;42.624;23.334;2022-09-09T13:03:18;7.15;;;6.45;;
12474;SDS011;6302;42.624;23.334;2022-09-09T13:05:46;8.45;;;6.97;;
12474;SDS011;6302;42.624;23.334;2022-09-09T13:08:16;8.93;;;6.60;;
12474;SDS011;6302;42.624;23.334;2022-09-09T13:10:46;9.05;;;6.53;;
12474;SDS011;6302;42.624;23.334;2022-09-09T13:13:20;9.43;;;7.25;;
12474;SDS011;6302;42.624;23.334;2022-09-09T13:15:49;7.82;;;7.03;;
12474;SDS011;6302;42.624;23.334;2022-09-09T13:18:20;8.80;;;7.07;;
12474;SDS011;6302;42.624;23.334;2022-09-09T13:20:49;8.10;;;7.30;;
12474;SDS011;6302;42.624;23.334;2022-09-09T13:23:19;10.73;;;6.90;;
12474;SDS011;6302;42.624;23.334;2022-09-09T13:25:53;7.68;;;6.63;;
12474;SDS011;6302;42.624;23.334;2022-09-09T13:28:22;8.23;;;6.80;;
12474;SDS011;6302;42.624;23.334;2022-09-09T13:30:55;7.65;;;6.82;;
12474;SDS011;6302;42.624;23.334;2022-09-09T13:33:29;7.22;;;6.25;;
12474;SDS011;6302;42.624;23.334;2022-09-09T13:35:58;7.13;;;6.43;;
12474;SDS011;6302;42.624;23.334;2022-09-09T13:38:29;7.72;;;6.28;;
12474;SDS011;6302;42.624;23.334;2022-09-09T13:41:00;8.68;;;6.38;;
12474;SDS011;6302;42.624;23.334;2022-09-09T13:43:28;8.23;;;6.65;;
12474;SDS011;6302;42.624;23.334;2022-09-09T13:45:58;7.25;;;6.35;;
12474;SDS011;6302;42.624;23.334;2022-09-09T13:48:26;8.32;;;6.70;;
12474;SDS011;6302;42.624;23.334;2022-09-09T13:50:59;7.43;;;6.63;;
12474;SDS011;6302;42.624;23.334;2022-09-09T13:53:31;7.68;;;6.25;;
12474;SDS011;6302;42.624;23.334;2022-09-09T13:55:58;8.80;;;7.03;;
12474;SDS011;6302;42.624;23.334;2022-09-09T13:58:26;7.18;;;6.10;;
12474;SDS011;6302;42.624;23.334;2022-09-09T14:00:53;7.82;;;6.85;;
12474;SDS011;6302;42.624;23.334;2022-09-09T14:03:20;6.97;;;5.88;;
12474;SDS011;6302;42.624;23.334;2022-09-09T14:05:47;9.30;;;7.07;;
12474;SDS011;6302;42.624;23.334;2022-09-09T14:08:17;8.23;;;7.43;;
12474;SDS011;6302;42.624;23.334;2022-09-09T14:10:50;8.85;;;6.85;;
12474;SDS011;6302;42.624;23.334;2022-09-09T14:13:17;10.05;;;6.88;;
12474;SDS011;6302;42.624;23.334;2022-09-09T14:15:47;11.57;;;7.53;;
12474;SDS011;6302;42.624;23.334;2022-09-09T14:18:14;8.43;;;6.88;;
12474;SDS011;6302;42.624;23.334;2022-09-09T14:20:41;8.63;;;6.60;;
12474;SDS011;6302;42.624;23.334;2022-09-09T14:23:09;9.45;;;7.18;;
12474;SDS011;6302;42.624;23.334;2022-09-09T14:25:39;9.40;;;7.38;;
12474;SDS011;6302;42.624;23.334;2022-09-09T14:28:10;10.48;;;6.50;;
12474;SDS011;6302;42.624;23.334;2022-09-09T14:30:38;9.45;;;6.38;;
12474;SDS011;6302;42.624;23.334;2022-09-09T14:33:05;7.63;;;6.65;;
12474;SDS011;6302;42.624;23.334;2022-09-09T14:35:33;9.38;;;5.90;;
12474;SDS011;6302;42.624;23.334;2022-09-09T14:38:01;8.32;;;6.10;;
12474;SDS011;6302;42.624;23.334;2022-09-09T14:40:28;8.30;;;6.32;;
12474;SDS011;6302;42.624;23.334;2022-09-09T14:42:55;6.22;;;5.63;;
12474;SDS011;6302;42.624;23.334;2022-09-09T14:45:23;7.25;;;6.28;;
12474;SDS011;6302;42.624;23.334;2022-09-09T14:47:51;7.38;;;6.18;;
12474;SDS011;6302;42.624;23.334;2022-09-09T14:50:18;7.93;;;6.80;;
12474;SDS011;6302;42.624;23.334;2022-09-09T14:52:45;9.02;;;6.18;;
12474;SDS011;6302;42.624;23.334;2022-09-09T14:55:13;7.07;;;6.38;;
12474;SDS011;6302;42.624;23.334;2022-09-09T14:57:40;6.75;;;6.05;;
12474;SDS011;6302;42.624;23.334;2022-09-09T15:00:07;10.57;;;6.57;;
12474;SDS011;6302;42.624;23.334;2022-09-09T15:02:37;11.05;;;6.57;;
12474;SDS011;6302;42.624;23.334;2022-09-09T15:05:04;9.38;;;6.65;;
12474;SDS011;6302;42.624;23.334;2022-09-09T15:07:32;6.88;;;6.07;;
12474;SDS011;6302;42.624;23.334;2022-09-09T15:09:59;8.38;;;6.43;;
12474;SDS011;6302;42.624;23.334;2022-09-09T15:12:26;7.07;;;5.78;;
12474;SDS011;6302;42.624;23.334;2022-09-09T15:14:53;7.22;;;6.50;;
12474;SDS011;6302;42.624;23.334;2022-09-09T15:17:20;8.55;;;6.55;;
12474;SDS011;6302;42.624;23.334;2022-09-09T15:19:49;7.63;;;6.57;;